Terminal Aerodrome Forecast
Issued by NWS

Home | Current Version | Previous Version | Text Only | Print | Product List | Glossary On
Versions: 1 2 3 4 5 6 7 8 9 10 11 12 13 14 15 16 17 18 19 20 21 22 23 24 25 26 27 28 29 30 31
000
FTUS46 KOTX 291739
TAFSFF
TAF
KSFF 291739Z 2918/3018 22020G32KT 3SM FU BLDU BKN100 OVC200
     FM292000 23022G30KT 2SM BLDU BKN100 OVC200
     FM300000 23014G20KT 3SM BLDU SCT060 BKN250
     FM300300 22009KT P6SM SCT100 SCT200
     FM301500 22013G21KT P6SM SCT040 BKN080=

USA.gov is the U.S. government's official web portal to all federal, state and local government web resources and services.